Time;durP1;ratioP1;P1;durP2;ratioP2;P2;SDS_P1;SDS_P2;PMS_P1;PMS_P2;Temp;Humidity;BMP_temperature;BMP_pressure;BME280_temperature;BME280_humidity;BME280_pressure;Samples;Min_cycle;Max_cycle;Signal;HPM_P1;HPM_P2
2023/05/31 00:01:35;;;;;;;3.50;3.20;;;;;;;16.98;73.13;94959.03;5077851;28;20197;-72
2023/05/31 00:04:03;;;;;;;3.80;3.50;;;;;;;16.97;72.85;94957.44;5077994;28;20193;-72
2023/05/31 00:06:31;;;;;;;4.40;3.47;;;;;;;17.00;72.70;94961.44;5076526;28;20201;-72
2023/05/31 00:08:58;;;;;;;3.33;3.03;;;;;;;16.99;73.00;94952.28;5076853;28;20266;-72
2023/05/31 00:11:26;;;;;;;3.58;3.28;;;;;;;17.01;73.40;94961.03;5077090;28;20246;-72
2023/05/31 00:13:54;;;;;;;4.05;3.65;;;;;;;17.00;73.48;94961.44;5076454;28;20706;-72
2023/05/31 00:16:21;;;;;;;4.90;3.65;;;;;;;17.01;73.10;94963.00;5076881;28;20208;-71
2023/05/31 00:18:48;;;;;;;3.70;3.40;;;;;;;16.99;72.89;94959.81;5076387;28;20189;-71
2023/05/31 00:21:16;;;;;;;4.35;3.95;;;;;;;16.98;72.81;94969.38;5077219;28;20652;-71
2023/05/31 00:23:46;;;;;;;4.80;3.97;;;;;;;16.99;72.92;94960.63;5077137;28;20201;-72
2023/05/31 00:26:13;;;;;;;3.92;3.63;;;;;;;16.98;73.36;94961.81;5077091;28;20663;-72
2023/05/31 00:28:40;;;;;;;4.22;3.83;;;;;;;16.99;73.28;94960.63;5076744;28;20193;-71
2023/05/31 00:31:08;;;;;;;4.05;3.75;;;;;;;16.98;73.08;94961.03;5077300;28;20201;-72
2023/05/31 00:33:36;;;;;;;3.95;3.65;;;;;;;16.96;73.38;94964.22;5076667;28;20201;-71
2023/05/31 00:36:05;;;;;;;4.07;3.70;;;;;;;16.95;73.22;94956.22;5077038;28;20177;-72
2023/05/31 00:38:33;;;;;;;4.30;3.60;;;;;;;16.94;73.93;94949.88;5076941;28;20239;-72
2023/05/31 00:41:02;;;;;;;4.55;4.15;;;;;;;16.92;73.80;94966.19;5076249;28;20254;-71
2023/05/31 00:43:31;;;;;;;4.18;3.78;;;;;;;16.88;73.45;94953.44;5075881;28;20251;-72
2023/05/31 00:46:01;;;;;;;4.13;3.55;;;;;;;16.86;74.29;94966.97;5076317;28;20197;-71
2023/05/31 00:48:30;;;;;;;3.78;3.47;;;;;;;16.86;74.35;94966.97;5076653;28;20201;-71
2023/05/31 00:50:58;;;;;;;4.22;3.83;;;;;;;16.86;74.22;94966.97;5076574;28;20182;-71
2023/05/31 00:53:25;;;;;;;4.70;3.70;;;;;;;16.84;74.50;94973.72;5077144;28;20193;-71
2023/05/31 00:55:53;;;;;;;6.15;4.38;;;;;;;16.87;74.34;94974.94;5077035;28;20250;-71
2023/05/31 00:58:23;;;;;;;4.28;3.97;;;;;;;16.86;74.79;94975.34;5076142;28;20193;-71
2023/05/31 01:00:53;;;;;;;4.25;3.85;;;;;;;16.86;75.13;94969.78;5076719;28;20251;-71
2023/05/31 01:03:21;;;;;;;4.70;4.30;;;;;;;16.82;74.98;94976.13;5076632;28;20219;-71
2023/05/31 01:05:49;;;;;;;4.95;4.47;;;;;;;16.79;74.62;94965.78;5075793;28;20239;-71
2023/05/31 01:08:18;;;;;;;4.68;4.28;;;;;;;16.80;75.06;94972.13;5076368;28;20189;-71
2023/05/31 01:10:45;;;;;;;4.57;4.13;;;;;;;16.78;75.46;94964.19;5076641;28;20255;-71
2023/05/31 01:13:18;;;;;;;4.40;3.88;;;;;;;16.78;75.21;94968.97;5076518;28;20243;-72
2023/05/31 01:15:49;;;;;;;5.43;4.32;;;;;;;16.77;75.10;94970.94;5076103;28;20204;-72
2023/05/31 01:18:24;;;;;;;4.85;4.45;;;;;;;16.78;75.33;94968.97;5076136;28;20382;-72
2023/05/31 01:20:54;;;;;;;4.35;3.95;;;;;;;16.77;74.81;94967.34;5075077;28;20201;-72
2023/05/31 01:23:37;;;;;;;4.53;4.13;;;;;;;16.76;74.67;94968.56;5076353;28;20248;-72
2023/05/31 01:26:34;;;;;;;4.97;4.50;;;;;;;16.77;74.98;94964.56;5076457;28;20189;-72
2023/05/31 01:29:14;;;;;;;6.07;3.88;;;;;;;16.77;75.28;94961.78;5075374;28;20212;-72
2023/05/31 01:31:43;;;;;;;4.40;3.97;;;;;;;16.75;75.21;94964.97;5076029;28;20188;-71
2023/05/31 01:34:10;;;;;;;4.68;4.25;;;;;;;16.74;75.81;94960.59;5076310;28;20267;-71
2023/05/31 01:36:39;;;;;;;4.65;4.05;;;;;;;16.74;75.95;94968.13;5075840;28;20574;-71
2023/05/31 01:39:08;;;;;;;5.63;4.78;;;;;;;16.74;75.74;94968.97;5076096;28;20204;-71
2023/05/31 01:41:38;;;;;;;4.82;4.32;;;;;;;16.74;75.82;94960.59;5075975;28;20206;-71
2023/05/31 01:44:10;;;;;;;4.68;3.92;;;;;;;16.75;76.05;94962.19;5075030;28;20221;-71
2023/05/31 01:46:37;;;;;;;4.30;4.00;;;;;;;16.75;76.76;94964.19;5076018;28;20266;-71
2023/05/31 01:49:08;;;;;;;5.35;4.40;;;;;;;16.74;76.44;94966.19;5075461;28;20497;-71
2023/05/31 01:51:38;;;;;;;4.50;4.10;;;;;;;16.74;76.05;94966.19;5075003;28;20213;-71
2023/05/31 01:54:07;;;;;;;6.45;4.63;;;;;;;16.73;76.24;94963.72;5075898;28;20181;-71
2023/05/31 01:56:36;;;;;;;7.18;5.65;;;;;;;16.66;76.54;94964.50;5075825;28;20223;-71
2023/05/31 01:59:08;;;;;;;5.63;4.70;;;;;;;16.62;76.92;94963.72;5075655;28;20226;-71
2023/05/31 02:01:35;;;;;;;6.97;5.57;;;;;;;16.58;77.28;94966.50;5075207;28;20209;-71
2023/05/31 02:04:03;;;;;;;6.70;5.82;;;;;;;16.54;77.59;94964.91;5075279;28;20641;-71
2023/05/31 02:06:32;;;;;;;8.63;5.38;;;;;;;16.48;77.41;94967.25;5074711;28;20208;-71
2023/05/31 02:09:01;;;;;;;5.72;5.05;;;;;;;16.45;77.03;94978.38;5075493;28;20254;-71
2023/05/31 02:11:30;;;;;;;5.90;5.20;;;;;;;16.41;77.58;94975.59;5075020;28;20225;-71
2023/05/31 02:14:00;;;;;;;7.78;5.18;;;;;;;16.35;77.84;94971.59;5074382;28;20254;-71
2023/05/31 02:16:33;;;;;;;6.30;5.70;;;;;;;16.39;78.05;94971.63;5074620;28;20296;-71
2023/05/31 02:19:01;;;;;;;5.60;5.18;;;;;;;16.42;78.16;94973.63;5074535;28;20280;-72
2023/05/31 02:21:28;;;;;;;5.68;4.85;;;;;;;16.45;78.53;94978.38;5075110;28;20247;-72
2023/05/31 02:23:56;;;;;;;6.75;5.60;;;;;;;16.46;78.02;94977.22;5075270;28;20201;-72
2023/05/31 02:26:23;;;;;;;5.65;4.95;;;;;;;16.41;78.32;94970.00;5075247;28;20193;-72
2023/05/31 02:28:50;;;;;;;6.72;5.00;;;;;;;16.39;78.01;94972.41;5074429;28;20251;-72
2023/05/31 02:31:17;;;;;;;6.00;5.10;;;;;;;16.41;78.24;94983.94;5074943;28;20193;-72
2023/05/31 02:33:48;;;;;;;5.85;5.25;;;;;;;16.42;78.47;94977.19;5074524;28;20254;-72
2023/05/31 02:36:16;;;;;;;6.35;4.85;;;;;;;16.45;78.07;94978.38;5075131;28;20227;-72
2023/05/31 02:38:46;;;;;;;5.13;4.63;;;;;;;16.48;78.05;94978.38;5073982;28;20274;-72
2023/05/31 02:41:14;;;;;;;5.80;5.18;;;;;;;16.48;78.05;94975.59;5073897;28;20193;-71
2023/05/31 02:43:46;;;;;;;6.53;5.07;;;;;;;16.49;78.29;94976.44;5074799;28;20197;-72
2023/05/31 02:46:13;;;;;;;7.60;4.65;;;;;;;16.48;78.18;94974.81;5074890;28;20562;-72
2023/05/31 02:48:39;;;;;;;5.88;5.28;;;;;;;16.46;78.07;94972.44;5074966;28;20189;-72
2023/05/31 02:51:10;;;;;;;8.13;5.25;;;;;;;16.47;78.05;94973.22;5074165;28;20205;-74
2023/05/31 02:53:36;;;;;;;6.57;5.32;;;;;;;16.44;77.91;94966.44;5074711;28;20203;-72
2023/05/31 02:56:05;;;;;;;5.93;5.38;;;;;;;16.43;77.92;94966.84;5074583;28;20511;-71
2023/05/31 02:58:34;;;;;;;6.63;4.93;;;;;;;16.47;77.93;94974.00;5073901;28;20301;-71
2023/05/31 03:01:02;;;;;;;5.10;4.57;;;;;;;16.50;77.97;94972.44;5074964;28;20195;-71
2023/05/31 03:03:31;;;;;;;5.43;4.88;;;;;;;16.49;77.86;94976.44;5073972;28;20273;-71
2023/05/31 03:05:59;;;;;;;5.32;4.80;;;;;;;16.49;77.43;94982.00;5074298;28;20197;-71
2023/05/31 03:08:29;;;;;;;7.95;5.40;;;;;;;16.46;77.24;94978.00;5074062;28;20201;-71
2023/05/31 03:10:58;;;;;;;6.05;5.45;;;;;;;16.46;77.53;94974.41;5074609;28;20224;-71
2023/05/31 03:13:24;;;;;;;6.13;5.40;;;;;;;16.48;77.18;94983.16;5074468;28;20659;-74
2023/05/31 03:15:51;;;;;;;5.55;5.03;;;;;;;16.47;77.45;94979.59;5074569;28;20209;-72
2023/05/31 03:18:18;;;;;;;7.45;5.30;;;;;;;16.47;77.47;94979.59;5074854;28;20201;-72
2023/05/31 03:20:48;;;;;;;7.68;5.18;;;;;;;16.45;77.56;94990.34;5074678;28;20231;-72
2023/05/31 03:23:17;;;;;;;5.88;5.10;;;;;;;16.44;77.42;94994.28;5074661;28;20224;-72
2023/05/31 03:25:50;;;;;;;7.50;5.50;;;;;;;16.42;77.95;94991.13;5073494;28;20263;-73
2023/05/31 03:28:20;;;;;;;5.88;5.40;;;;;;;16.41;77.57;94988.69;5074741;28;20189;-73
2023/05/31 03:30:48;;;;;;;5.38;4.88;;;;;;;16.37;77.41;94989.47;5073321;28;20207;-73
2023/05/31 03:33:16;;;;;;;5.70;5.20;;;;;;;16.32;77.75;94992.66;5074612;28;20178;-74
2023/05/31 03:35:45;;;;;;;6.90;5.10;;;;;;;16.31;78.17;94996.63;5074753;28;20181;-74
2023/05/31 03:38:14;;;;;;;6.57;4.72;;;;;;;16.32;78.40;95000.22;5074331;28;20242;-73
2023/05/31 03:40:40;;;;;;;5.68;5.18;;;;;;;16.32;78.69;94992.66;5075443;28;20200;-74
2023/05/31 03:43:08;;;;;;;5.70;5.13;;;;;;;16.32;78.42;94997.44;5078194;28;20205;-74
2023/05/31 03:45:35;;;;;;;5.50;5.00;;;;;;;16.32;78.68;94997.44;5077599;28;20205;-74
2023/05/31 03:48:02;;;;;;;6.07;5.15;;;;;;;16.35;78.83;95000.22;5078365;28;20243;-74
2023/05/31 03:50:30;;;;;;;5.75;5.25;;;;;;;16.35;78.57;95000.22;5077604;28;20197;-74
2023/05/31 03:52:57;;;;;;;5.80;5.30;;;;;;;16.34;78.62;95001.44;5078092;28;20230;-73
2023/05/31 03:55:24;;;;;;;6.18;5.57;;;;;;;16.35;78.43;95005.00;5078526;28;20192;-73
2023/05/31 03:57:51;;;;;;;6.00;5.25;;;;;;;16.37;78.45;95008.16;5077645;28;20564;-73
2023/05/31 04:00:20;;;;;;;7.05;5.40;;;;;;;16.40;78.60;95009.38;5078033;28;20185;-73
2023/05/31 04:02:46;;;;;;;7.28;5.43;;;;;;;16.40;78.09;95009.38;5077239;28;20193;-74
2023/05/31 04:05:13;;;;;;;9.80;5.13;;;;;;;16.40;78.40;95006.59;5077866;28;20193;-73
2023/05/31 04:07:40;;;;;;;7.80;5.65;;;;;;;16.40;78.38;95012.97;5077577;28;20193;-72
2023/05/31 04:10:08;;;;;;;6.22;5.63;;;;;;;16.38;78.17;95018.13;5077817;28;20185;-72
2023/05/31 04:12:34;;;;;;;8.85;6.72;;;;;;;16.40;78.43;95015.75;5076214;28;20427;-74
2023/05/31 04:15:05;;;;;;;7.68;6.53;;;;;;;16.42;78.37;95009.81;5077657;28;20181;-74
2023/05/31 04:17:33;;;;;;;7.68;6.00;;;;;;;16.40;78.43;95012.16;5076931;28;20259;-75
2023/05/31 04:20:00;;;;;;;9.73;6.18;;;;;;;16.40;77.81;95014.94;5077735;28;20185;-74
2023/05/31 04:22:27;;;;;;;8.95;7.32;;;;;;;16.37;78.16;95014.53;5076585;28;20241;-74
2023/05/31 04:24:54;;;;;;;8.15;7.35;;;;;;;16.39;77.67;95022.50;5076627;28;20230;-74
2023/05/31 04:27:20;;;;;;;8.32;7.53;;;;;;;16.42;78.21;95023.72;5077224;28;20196;-74
2023/05/31 04:29:50;;;;;;;9.77;7.50;;;;;;;16.42;77.93;95032.88;5077385;28;20201;-74
2023/05/31 04:32:21;;;;;;;8.43;7.40;;;;;;;16.43;78.40;95026.09;5077094;28;20195;-73
2023/05/31 04:34:52;;;;;;;8.98;8.07;;;;;;;16.45;79.02;95028.47;5076464;28;20205;-73
2023/05/31 04:37:19;;;;;;;7.80;7.00;;;;;;;16.45;78.91;95032.09;5076438;28;20288;-73
2023/05/31 04:39:46;;;;;;;8.25;7.28;;;;;;;16.44;78.19;95041.59;5077120;28;20209;-74
2023/05/31 04:42:14;;;;;;;8.55;7.00;;;;;;;16.46;78.34;95042.03;5059308;28;20205;-74
2023/05/31 04:44:41;;;;;;;11.25;6.18;;;;;;;16.48;78.70;95044.41;5077304;28;20205;-74
2023/05/31 04:47:08;;;;;;;7.97;6.78;;;;;;;16.49;78.45;95038.47;5075887;28;20224;-75
2023/05/31 04:49:36;;;;;;;8.35;6.65;;;;;;;16.52;78.42;95042.44;5076377;28;20196;-75
2023/05/31 04:52:05;;;;;;;6.85;6.15;;;;;;;16.52;77.77;95045.22;5075907;28;20292;-74
2023/05/31 04:54:32;;;;;;;8.00;6.63;;;;;;;16.53;77.74;95046.81;5076276;28;20196;-77
2023/05/31 04:57:01;;;;;;;8.10;6.90;;;;;;;16.53;77.51;95047.63;5076531;28;20258;-74
2023/05/31 04:59:29;;;;;;;10.20;7.47;;;;;;;16.53;77.83;95049.63;5076177;28;20193;-74
2023/05/31 05:01:56;;;;;;;7.55;6.80;;;;;;;16.56;77.97;95046.84;5075971;28;20193;-74
2023/05/31 05:04:24;;;;;;;7.82;6.97;;;;;;;16.60;78.11;95058.78;5075892;28;20307;-73
2023/05/31 05:06:51;;;;;;;9.38;7.25;;;;;;;16.65;78.41;95048.47;5075852;28;20197;-73
2023/05/31 05:09:19;;;;;;;15.07;7.40;;;;;;;16.68;78.17;95054.03;5075955;28;20575;-74
2023/05/31 05:11:46;;;;;;;8.65;7.47;;;;;;;16.71;78.30;95049.69;5075992;28;20231;-74
2023/05/31 05:14:13;;;;;;;8.55;7.22;;;;;;;16.74;78.20;95060.88;5075824;28;20193;-74
2023/05/31 05:16:41;;;;;;;9.02;7.45;;;;;;;16.77;78.92;95062.03;5076661;28;20237;-74
2023/05/31 05:19:07;;;;;;;10.45;8.07;;;;;;;16.80;78.26;95055.69;5076524;28;20193;-74
2023/05/31 05:21:34;;;;;;;8.90;7.30;;;;;;;16.80;77.63;95064.03;5076133;28;20733;-74
2023/05/31 05:24:02;;;;;;;9.02;7.78;;;;;;;16.81;77.35;95074.00;5075127;28;20209;-74
2023/05/31 05:26:34;;;;;;;10.82;8.32;;;;;;;16.81;77.39;95074.00;5075131;28;20590;-74
2023/05/31 05:29:02;;;;;;;11.15;8.68;;;;;;;16.83;77.14;95074.41;5075393;28;20223;-74
2023/05/31 05:31:30;;;;;;;9.88;7.97;;;;;;;16.84;77.01;95073.22;5076493;28;20201;-74
2023/05/31 05:33:56;;;;;;;9.27;8.38;;;;;;;16.87;77.65;95080.00;5076411;28;20531;-74
2023/05/31 05:36:23;;;;;;;12.50;8.32;;;;;;;16.89;77.70;95083.19;5076175;28;20194;-74
2023/05/31 05:38:50;;;;;;;10.45;9.05;;;;;;;16.92;77.48;95074.03;5075210;28;20238;-74
2023/05/31 05:41:17;;;;;;;10.90;8.30;;;;;;;16.92;77.16;95083.19;5075689;28;20197;-74
2023/05/31 05:43:57;;;;;;;8.90;7.65;;;;;;;16.93;76.97;95081.22;5075175;28;20224;-74
2023/05/31 05:46:24;;;;;;;9.98;7.70;;;;;;;16.95;77.32;95078.81;5075946;28;20259;-74
2023/05/31 05:48:50;;;;;;;8.50;7.70;;;;;;;16.98;77.54;95086.38;5075667;28;20254;-74
2023/05/31 05:51:19;;;;;;;10.65;8.35;;;;;;;17.01;76.71;95083.59;5075974;28;20258;-73
2023/05/31 05:53:47;;;;;;;10.32;8.13;;;;;;;17.03;76.75;95086.81;5075186;28;20185;-74
2023/05/31 05:56:18;;;;;;;8.75;7.95;;;;;;;17.05;76.74;95084.41;5075371;28;20563;-74
2023/05/31 05:58:47;;;;;;;10.10;7.68;;;;;;;17.11;77.06;95078.47;5075863;28;20204;-74
2023/05/31 06:01:18;;;;;;;10.30;8.50;;;;;;;17.13;76.63;95076.88;5075592;28;20288;-74
2023/05/31 06:03:47;;;;;;;10.10;8.00;;;;;;;17.15;76.73;95082.06;5074457;28;20212;-73
2023/05/31 06:06:17;;;;;;;8.63;7.75;;;;;;;17.18;76.38;95084.84;5074544;28;20205;-74
2023/05/31 06:08:45;;;;;;;8.95;7.75;;;;;;;17.23;76.05;95083.66;5075594;28;20276;-74
2023/05/31 06:11:13;;;;;;;9.98;7.97;;;;;;;17.25;76.31;95081.28;5075174;28;20613;-74
2023/05/31 06:13:39;;;;;;;9.20;8.00;;;;;;;17.28;75.96;95078.50;5075811;28;20201;-74
2023/05/31 06:16:09;;;;;;;9.50;8.35;;;;;;;17.30;75.45;95081.69;5074504;28;20504;-74
2023/05/31 06:18:35;;;;;;;11.25;8.07;;;;;;;17.32;75.43;95089.66;5075121;28;20235;-74
2023/05/31 06:21:04;;;;;;;9.95;8.93;;;;;;;17.32;75.25;95084.88;5074131;28;20197;-74
2023/05/31 06:23:32;;;;;;;8.88;7.97;;;;;;;17.37;75.37;95089.25;5074670;28;20258;-74
2023/05/31 06:25:58;;;;;;;10.35;8.95;;;;;;;17.42;75.58;95082.50;5074503;28;20579;-74
2023/05/31 06:28:25;;;;;;;9.73;8.77;;;;;;;17.45;75.00;95085.28;5074073;28;20209;-74
2023/05/31 06:30:52;;;;;;;10.40;9.00;;;;;;;17.48;75.00;95090.06;5075297;28;20193;-74
2023/05/31 06:33:21;;;;;;;10.20;8.70;;;;;;;17.51;74.83;95083.69;5075238;28;20259;-73
2023/05/31 06:35:49;;;;;;;11.02;8.35;;;;;;;17.55;75.41;95090.06;5074244;28;20262;-74
2023/05/31 06:38:17;;;;;;;10.15;8.95;;;;;;;17.58;75.41;95088.50;5074149;28;20625;-74
2023/05/31 06:40:45;;;;;;;10.27;9.10;;;;;;;17.60;75.15;95086.09;5074066;28;20585;-74
2023/05/31 06:43:15;;;;;;;11.27;8.93;;;;;;;17.64;75.39;95083.28;5075093;28;20197;-74
2023/05/31 06:45:42;;;;;;;10.65;9.20;;;;;;;17.65;74.74;95082.91;5073778;28;20213;-74
2023/05/31 06:48:11;;;;;;;12.02;9.43;;;;;;;17.67;74.41;95079.72;5074854;28;20215;-74
2023/05/31 06:50:40;;;;;;;12.05;9.88;;;;;;;17.70;74.65;95087.28;5074130;28;20533;-74
2023/05/31 06:53:09;;;;;;;12.95;9.38;;;;;;;17.73;74.63;95083.72;5074809;28;20528;-74
2023/05/31 06:55:37;;;;;;;10.77;9.75;;;;;;;17.78;74.72;95088.91;5074779;28;20178;-74
2023/05/31 06:58:06;;;;;;;9.43;8.45;;;;;;;17.81;73.78;95085.31;5075241;28;20189;-74
2023/05/31 07:00:34;;;;;;;9.90;8.63;;;;;;;17.83;73.60;95085.72;5074213;28;20617;-74
2023/05/31 07:03:02;;;;;;;9.57;8.25;;;;;;;17.85;73.21;95088.91;5074296;28;20193;-74
2023/05/31 07:05:31;;;;;;;10.27;8.10;;;;;;;17.87;73.13;95091.31;5074337;28;20221;-74
2023/05/31 07:08:05;;;;;;;9.48;8.27;;;;;;;17.90;73.30;95088.53;5075186;28;20623;-74
2023/05/31 07:10:33;;;;;;;9.40;8.43;;;;;;;17.91;72.85;95083.72;5074115;28;20197;-74
2023/05/31 07:13:01;;;;;;;9.98;8.27;;;;;;;17.92;72.65;95083.31;5074124;28;20209;-74
2023/05/31 07:15:28;;;;;;;9.13;8.13;;;;;;;17.95;72.62;95088.09;5075412;28;20605;-74
2023/05/31 07:17:55;;;;;;;10.63;8.73;;;;;;;17.99;72.79;95083.31;5078857;28;20193;-74
2023/05/31 07:20:21;;;;;;;10.65;8.88;;;;;;;18.04;73.21;95080.09;5077822;28;20571;-73
2023/05/31 07:22:48;;;;;;;10.68;8.13;;;;;;;18.12;73.33;95080.09;5078228;28;20302;-74
2023/05/31 07:25:17;;;;;;;12.52;8.75;;;;;;;18.17;72.67;95085.28;5077633;28;20216;-74
2023/05/31 07:27:46;;;;;;;10.60;7.80;;;;;;;18.24;72.73;95085.28;5078473;28;20242;-74
2023/05/31 07:30:16;;;;;;;8.82;7.93;;;;;;;18.28;72.08;95086.06;5078547;28;20265;-74
2023/05/31 07:32:42;;;;;;;10.57;8.55;;;;;;;18.34;71.75;95080.84;5077647;28;20532;-74
2023/05/31 07:35:10;;;;;;;8.20;7.40;;;;;;;18.36;70.70;95086.84;5077378;28;20185;-74
2023/05/31 07:37:36;;;;;;;10.52;7.93;;;;;;;18.38;71.45;95088.03;5077803;28;20625;-74
2023/05/31 07:40:04;;;;;;;8.00;7.20;;;;;;;18.43;71.66;95086.81;5078369;28;20200;-74
2023/05/31 07:42:33;;;;;;;9.02;7.40;;;;;;;18.47;71.03;95076.44;5078442;28;20246;-74
2023/05/31 07:44:59;;;;;;;7.78;6.95;;;;;;;18.51;70.39;95075.22;5077236;28;20220;-74
2023/05/31 07:47:27;;;;;;;7.57;6.60;;;;;;;18.52;69.77;95073.25;5078236;28;20197;-74
2023/05/31 07:49:54;;;;;;;7.97;7.03;;;;;;;18.57;70.75;95077.59;5077393;28;20213;-74
2023/05/31 07:52:23;;;;;;;7.95;7.15;;;;;;;18.61;70.02;95081.19;5077101;28;20197;-74
2023/05/31 07:54:50;;;;;;;7.85;6.53;;;;;;;18.61;69.42;95073.59;5078021;28;20262;-74
2023/05/31 07:57:18;;;;;;;9.38;8.57;;;;;;;18.64;69.86;95077.59;5076806;28;20197;-74
2023/05/31 07:59:50;;;;;;;7.90;7.10;;;;;;;18.67;69.68;95077.56;5077070;28;20200;-74
2023/05/31 08:02:18;;;;;;;6.97;6.28;;;;;;;18.72;70.23;95079.97;5078016;28;20283;-74
2023/05/31 08:04:45;;;;;;;7.32;6.65;;;;;;;18.78;69.85;95085.16;5077179;28;20217;-74
2023/05/31 08:07:11;;;;;;;6.88;6.07;;;;;;;18.83;69.58;95079.91;5076564;28;20200;-74
2023/05/31 08:09:38;;;;;;;10.13;6.25;;;;;;;18.87;68.61;95077.09;5077887;28;20193;-74
2023/05/31 08:12:06;;;;;;;7.88;6.18;;;;;;;18.90;68.79;95073.50;5077857;28;20216;-74
2023/05/31 08:14:33;;;;;;;6.57;5.97;;;;;;;18.94;68.25;95079.88;5077458;28;20262;-74
2023/05/31 08:17:01;;;;;;;6.85;6.20;;;;;;;18.95;68.03;95078.66;5076714;28;20254;-74
2023/05/31 08:19:29;;;;;;;7.38;6.25;;;;;;;18.97;67.74;95074.25;5077307;28;20251;-74
2023/05/31 08:21:55;;;;;;;7.45;6.15;;;;;;;19.01;68.10;95074.25;5076723;28;20228;-74
2023/05/31 08:24:24;;;;;;;8.52;6.00;;;;;;;19.03;67.61;95065.44;5076836;28;20213;-74
2023/05/31 08:26:51;;;;;;;7.65;6.18;;;;;;;19.06;67.95;95065.41;5076151;28;20613;-74
2023/05/31 08:29:21;;;;;;;7.93;6.28;;;;;;;19.06;67.42;95073.00;5076528;28;20652;-74
2023/05/31 08:31:49;;;;;;;6.00;5.50;;;;;;;19.11;67.49;95067.00;5076978;28;20189;-74
2023/05/31 08:34:19;;;;;;;6.60;6.00;;;;;;;19.16;67.25;95070.16;5060271;28;20197;-74
2023/05/31 08:36:48;;;;;;;6.63;5.90;;;;;;;19.20;67.21;95061.75;5077255;28;20207;-76
2023/05/31 08:39:17;;;;;;;8.57;6.43;;;;;;;19.28;67.48;95068.09;5077300;28;20185;-75
2023/05/31 08:41:49;;;;;;;7.82;7.07;;;;;;;19.36;68.20;95059.25;5076884;28;20264;-74
2023/05/31 08:44:18;;;;;;;8.07;7.07;;;;;;;19.45;67.85;95058.78;5076332;28;20201;-74
2023/05/31 08:46:46;;;;;;;119.05;83.13;;;;;;;19.55;67.64;95057.13;5076231;28;20197;-74
2023/05/31 08:49:16;;;;;;;10.13;9.05;;;;;;;19.67;66.43;95057.44;5077075;28;20177;-73
2023/05/31 08:51:46;;;;;;;60.63;44.35;;;;;;;19.87;67.39;95045.69;5077170;28;20193;-74
2023/05/31 08:54:13;;;;;;;34.75;29.38;;;;;;;20.01;65.84;95042.78;5076702;28;20285;-73
2023/05/31 08:56:40;;;;;;;28.30;19.30;;;;;;;20.09;65.61;95038.69;5076701;28;20192;-73
2023/05/31 08:59:08;;;;;;;34.85;24.75;;;;;;;20.28;66.52;95031.69;5076570;28;20201;-73
2023/05/31 09:01:36;;;;;;;20.27;17.90;;;;;;;20.51;66.22;95036.66;5076605;28;20202;-74
2023/05/31 09:04:04;;;;;;;31.73;24.92;;;;;;;20.58;65.51;95033.75;5076960;28;20189;-74
2023/05/31 09:06:33;;;;;;;9.75;8.75;;;;;;;20.46;64.24;95034.28;5076137;28;20254;-74
2023/05/31 09:09:03;;;;;;;8.13;7.32;;;;;;;20.29;64.24;95022.06;5076746;28;20200;-73
2023/05/31 09:11:30;;;;;;;8.73;7.85;;;;;;;20.19;64.75;95021.00;5076040;28;20192;-73
2023/05/31 09:14:01;;;;;;;19.75;16.55;;;;;;;20.18;64.39;95016.56;5075870;28;20197;-73
2023/05/31 09:16:29;;;;;;;26.08;20.13;;;;;;;20.29;65.29;95021.28;5076943;28;20593;-74
2023/05/31 09:19:02;;;;;;;11.90;10.25;;;;;;;20.58;66.97;95022.56;5075747;28;20190;-75
2023/05/31 09:21:30;;;;;;;14.95;11.55;;;;;;;20.78;65.53;95019.91;5076273;28;20261;-73
2023/05/31 09:23:59;;;;;;;12.35;9.85;;;;;;;20.82;64.54;95015.06;5075540;28;20246;-73
2023/05/31 09:26:32;;;;;;;13.50;10.60;;;;;;;20.71;60.55;95010.81;5075180;28;20216;-73
2023/05/31 09:29:02;;;;;;;8.55;7.25;;;;;;;20.59;61.42;95009.38;5076242;28;20197;-73
2023/05/31 09:31:31;;;;;;;12.18;9.90;;;;;;;20.63;63.22;95008.09;5075913;28;20695;-74
2023/05/31 09:33:58;;;;;;;10.75;9.30;;;;;;;20.76;61.65;95004.72;5075659;28;20198;-73
2023/05/31 09:36:28;;;;;;;7.15;6.60;;;;;;;20.90;61.45;95010.16;5076151;28;20193;-73
2023/05/31 09:39:00;;;;;;;6.82;6.22;;;;;;;20.94;60.06;95002.47;5074933;28;20193;-73
2023/05/31 09:41:31;;;;;;;6.85;6.15;;;;;;;21.03;60.59;95010.38;5075443;28;20203;-74
2023/05/31 09:44:04;;;;;;;6.93;5.80;;;;;;;21.02;58.99;94997.56;5075185;28;20201;-74
2023/05/31 09:46:32;;;;;;;7.30;6.60;;;;;;;21.17;60.78;94993.34;5075956;28;20206;-74
2023/05/31 09:49:00;;;;;;;7.47;6.30;;;;;;;21.43;60.94;94988.19;5075519;28;20193;-74
2023/05/31 09:51:26;;;;;;;6.68;5.70;;;;;;;21.63;59.65;94983.41;5075861;28;20196;-74
2023/05/31 09:53:55;;;;;;;6.45;5.85;;;;;;;21.71;59.33;94989.69;5075838;28;20181;-74
2023/05/31 09:56:23;;;;;;;7.85;6.00;;;;;;;21.54;58.91;94992.41;5074925;28;20220;-74
2023/05/31 09:59:00;;;;;;;6.22;5.63;;;;;;;21.30;57.76;94999.16;5074989;28;20201;-74
2023/05/31 10:01:32;;;;;;;6.07;5.45;;;;;;;21.04;58.42;94989.53;5074958;28;20197;-74
2023/05/31 10:04:03;;;;;;;5.90;5.40;;;;;;;20.80;58.44;94995.06;5074919;28;20246;-74
2023/05/31 10:06:31;;;;;;;6.40;5.85;;;;;;;20.62;58.57;94994.50;5075793;28;20216;-74
2023/05/31 10:08:58;;;;;;;4.93;4.53;;;;;;;20.54;57.29;94999.41;5074571;28;20193;-74
2023/05/31 10:11:28;;;;;;;4.60;4.20;;;;;;;20.47;56.58;95001.47;5074903;28;20262;-74
2023/05/31 10:14:12;;;;;;;4.72;4.32;;;;;;;20.45;59.26;95004.69;5074559;28;20197;-74
2023/05/31 10:16:44;;;;;;;5.68;5.10;;;;;;;20.42;59.19;95000.72;5074809;28;20196;-74
2023/05/31 10:19:12;;;;;;;7.32;5.65;;;;;;;20.40;60.20;94996.72;5073771;28;20200;-73
2023/05/31 10:21:44;;;;;;;6.60;5.85;;;;;;;20.38;59.56;94999.97;5074172;28;20244;-74
2023/05/31 10:24:15;;;;;;;6.10;5.15;;;;;;;20.37;59.42;94994.75;5074527;28;20193;-74
2023/05/31 10:26:47;;;;;;;5.78;5.28;;;;;;;20.38;59.16;94991.56;5075222;28;20304;-74
2023/05/31 10:29:18;;;;;;;5.85;5.35;;;;;;;20.43;59.86;94991.09;5074433;28;20274;-74
2023/05/31 10:31:49;;;;;;;6.50;5.50;;;;;;;20.48;59.25;94992.66;5074323;28;20682;-73
2023/05/31 10:34:20;;;;;;;6.03;5.32;;;;;;;20.54;60.17;94979.78;5074998;28;20498;-73
2023/05/31 10:36:50;;;;;;;6.25;5.65;;;;;;;20.59;58.36;94984.16;5075368;28;20195;-73
2023/05/31 10:39:25;;;;;;;5.68;5.18;;;;;;;20.63;59.19;94971.66;5075179;28;20193;-73
2023/05/31 10:42:09;;;;;;;6.07;5.43;;;;;;;20.68;59.13;94976.78;5074240;28;20201;-74
2023/05/31 10:44:48;;;;;;;5.93;5.43;;;;;;;20.78;62.22;94966.66;5074816;28;20181;-74
2023/05/31 10:47:17;;;;;;;6.50;5.60;;;;;;;20.84;61.74;94966.97;5075010;28;20204;-74
2023/05/31 10:49:46;;;;;;;6.90;6.07;;;;;;;20.87;61.98;94977.34;5074143;28;20199;-74
2023/05/31 10:52:17;;;;;;;6.78;6.07;;;;;;;20.90;61.35;94976.50;5074137;28;20199;-74
2023/05/31 10:54:46;;;;;;;6.50;5.15;;;;;;;20.97;59.86;94976.41;5074725;28;20567;-73
2023/05/31 10:57:16;;;;;;;6.32;4.60;;;;;;;20.98;57.40;94974.38;5073933;28;20204;-73
2023/05/31 10:59:46;;;;;;;6.07;4.70;;;;;;;20.95;58.39;94972.44;5074025;28;20631;-74
2023/05/31 11:02:16;;;;;;;4.82;4.43;;;;;;;20.94;57.75;94977.25;5074428;28;20200;-74
2023/05/31 11:04:49;;;;;;;4.82;4.38;;;;;;;20.88;56.68;94982.53;5074235;28;20675;-74
2023/05/31 11:07:22;;;;;;;5.75;3.95;;;;;;;20.86;56.29;94981.38;5074957;28;20182;-74
2023/05/31 11:09:59;;;;;;;4.38;3.95;;;;;;;20.88;57.11;94976.94;5074602;28;20278;-74
2023/05/31 11:12:34;;;;;;;6.38;4.25;;;;;;;21.14;59.50;94969.75;5074066;28;20205;-74
2023/05/31 11:15:04;;;;;;;5.10;4.28;;;;;;;21.41;58.51;94960.53;5073669;28;20220;-74
2023/05/31 11:17:41;;;;;;;4.40;4.00;;;;;;;21.59;58.18;94957.44;5073981;28;20201;-74
2023/05/31 11:20:09;;;;;;;6.18;4.97;;;;;;;21.75;57.55;94957.56;5074020;28;20291;-74
2023/05/31 11:22:36;;;;;;;4.80;4.30;;;;;;;21.80;59.26;94956.28;5073051;28;20244;-74
2023/05/31 11:25:09;;;;;;;5.20;4.80;;;;;;;21.95;60.89;94951.19;5073721;28;20205;-74
2023/05/31 11:27:40;;;;;;;5.72;4.82;;;;;;;21.98;59.78;94947.53;5075149;28;20204;-74
2023/05/31 11:30:13;;;;;;;5.82;5.00;;;;;;;21.90;56.73;94946.88;5073692;28;20219;-74
2023/05/31 11:33:16;;;;;;;6.93;4.43;;;;;;;21.88;58.43;94930.44;5073604;28;20223;-74
2023/05/31 11:35:43;;;;;;;7.03;4.95;;;;;;;21.95;57.71;94926.69;5073754;28;20208;-74
2023/05/31 11:38:11;;;;;;;5.03;4.40;;;;;;;21.88;56.51;94936.03;5074053;28;20201;-74
2023/05/31 11:40:42;;;;;;;5.72;5.10;;;;;;;21.85;57.40;94931.28;5074290;28;20181;-74